Time,TemperatureF,DewpointF,PressureIn,WindDirection,WindDirectionDegrees,WindSpeedMPH,WindSpeedGustMPH,Humidity,HourlyPrecipIn,Conditions,Clouds,dailyrainin,SoftwareType,DateUTC
2013-02-18 00:02:00,26.0,-99.9,-100.00,NW,312,11.0,15.0,-999,0.00,,,-99.99,,2013-02-18 05:02:00,
2013-02-18 00:11:00,26.0,-99.9,-100.00,NW,312,11.0,15.0,-999,0.00,,,-99.99,,2013-02-18 05:11:00,
2013-02-18 00:22:00,26.0,-99.9,-100.00,NW,322,13.0,18.0,-999,0.00,,,-99.99,,2013-02-18 05:22:00,
2013-02-18 00:32:00,25.0,-99.9,-100.00,NW,316,11.0,14.0,-999,0.00,,,-99.99,,2013-02-18 05:32:00,
2013-02-18 00:42:00,25.0,-99.9,-100.00,NW,316,11.0,14.0,-999,0.00,,,-99.99,,2013-02-18 05:42:00,
2013-02-18 00:52:00,24.0,-99.9,-100.00,NW,325,10.0,14.0,-999,0.00,,,-99.99,,2013-02-18 05:52:00,
2013-02-18 01:02:00,24.0,-99.9,-100.00,NNW,328,9.0,11.0,-999,0.00,,,-99.99,,2013-02-18 06:02:00,
2013-02-18 01:11:00,24.0,-99.9,-100.00,NNW,328,9.0,11.0,-999,0.00,,,-99.99,,2013-02-18 06:11:00,
2013-02-18 01:22:00,23.0,-99.9,-100.00,North,353,8.0,10.0,-999,0.00,,,-99.99,,2013-02-18 06:22:00,
2013-02-18 01:32:00,22.0,-99.9,-100.00,North,359,7.0,10.0,-999,0.00,,,-99.99,,2013-02-18 06:32:00,
2013-02-18 01:42:00,22.0,-99.9,-100.00,NNW,346,8.0,11.0,-999,0.00,,,-99.99,,2013-02-18 06:42:00,
2013-02-18 01:52:00,22.0,-99.9,-100.00,NNW,346,8.0,11.0,-999,0.00,,,-99.99,,2013-02-18 06:52:00,
2013-02-18 02:02:00,22.0,-99.9,-100.00,NNW,345,8.0,10.0,-999,0.00,,,-99.99,,2013-02-18 07:02:00,
2013-02-18 02:12:00,22.0,-99.9,-100.00,NNW,345,8.0,10.0,-999,0.00,,,-99.99,,2013-02-18 07:12:00,
2013-02-18 02:22:00,22.0,-99.9,-100.00,NW,311,10.0,14.0,-999,0.00,,,-99.99,,2013-02-18 07:22:00,
2013-02-18 02:32:00,21.0,-99.9,-100.00,North,349,8.0,11.0,-999,0.00,,,-99.99,,2013-02-18 07:32:00,
2013-02-18 02:42:00,21.0,-99.9,-100.00,North,349,8.0,11.0,-999,0.00,,,-99.99,,2013-02-18 07:42:00,
2013-02-18 02:52:00,21.0,-99.9,-100.00,NW,323,8.0,10.0,-999,0.00,,,-99.99,,2013-02-18 07:52:00,
2013-02-18 03:02:00,21.0,-99.9,-100.00,NNW,340,7.0,9.0,-999,0.00,,,-99.99,,2013-02-18 08:02:00,
2013-02-18 03:11:00,21.0,-99.9,-100.00,North,349,9.0,11.0,-999,0.00,,,-99.99,,2013-02-18 08:11:00,
2013-02-18 03:22:00,21.0,-99.9,-100.00,North,349,9.0,11.0,-999,0.00,,,-99.99,,2013-02-18 08:22:00,
2013-02-18 03:33:00,21.0,-99.9,-100.00,NNW,338,7.0,10.0,-999,0.00,,,-99.99,,2013-02-18 08:33:00,
2013-02-18 03:42:00,21.0,-99.9,-100.00,NNW,338,7.0,10.0,-999,0.00,,,-99.99,,2013-02-18 08:42:00,
2013-02-18 03:52:00,21.0,-99.9,-100.00,NW,316,7.0,10.0,-999,0.00,,,-99.99,,2013-02-18 08:52:00,
2013-02-18 04:03:00,20.0,-99.9,-100.00,North,359,6.0,8.0,-999,0.00,,,-99.99,,2013-02-18 09:03:00,
2013-02-18 04:11:00,20.0,-99.9,-100.00,North,359,6.0,8.0,-999,0.00,,,-99.99,,2013-02-18 09:11:00,
2013-02-18 04:22:00,21.0,-99.9,-100.00,North,357,7.0,8.0,-999,0.00,,,-99.99,,2013-02-18 09:22:00,
2013-02-18 04:32:00,21.0,-99.9,-100.00,NNW,339,6.0,8.0,-999,0.00,,,-99.99,,2013-02-18 09:32:00,
2013-02-18 04:42:00,21.0,-99.9,-100.00,NNW,339,6.0,8.0,-999,0.00,,,-99.99,,2013-02-18 09:42:00,
2013-02-18 04:52:00,21.0,-99.9,-100.00,North,1,2.0,7.0,-999,0.00,,,-99.99,,2013-02-18 09:52:00,
2013-02-18 05:01:00,21.0,-99.9,-100.00,NNW,338,5.0,8.0,-999,0.00,,,-99.99,,2013-02-18 10:01:00,
2013-02-18 05:12:00,21.0,-99.9,-100.00,NNW,338,5.0,8.0,-999,0.00,,,-99.99,,2013-02-18 10:12:00,
2013-02-18 05:22:00,20.0,-99.9,-100.00,NNW,347,9.0,11.0,-999,0.00,,,-99.99,,2013-02-18 10:22:00,
2013-02-18 05:32:00,20.0,-99.9,-100.00,NNW,342,8.0,10.0,-999,0.00,,,-99.99,,2013-02-18 10:32:00,
2013-02-18 05:43:00,20.0,-99.9,-100.00,NNW,342,8.0,10.0,-999,0.00,,,-99.99,,2013-02-18 10:43:00,
2013-02-18 05:54:00,20.0,-99.9,-100.00,NW,325,7.0,10.0,-999,0.00,,,-99.99,,2013-02-18 10:54:00,
2013-02-18 06:02:00,19.0,-99.9,-100.00,NW,319,8.0,10.0,-999,0.00,,,-99.99,,2013-02-18 11:02:00,
2013-02-18 06:12:00,19.0,-99.9,-100.00,NW,319,8.0,10.0,-999,0.00,,,-99.99,,2013-02-18 11:12:00,
2013-02-18 06:22:00,19.0,-99.9,-100.00,NNW,328,6.0,9.0,-999,0.00,,,-99.99,,2013-02-18 11:22:00,
2013-02-18 06:33:00,19.0,-99.9,-100.00,NNW,333,8.0,10.0,-999,0.00,,,-99.99,,2013-02-18 11:33:00,
2013-02-18 06:43:00,19.0,-99.9,-100.00,NNW,333,8.0,10.0,-999,0.00,,,-99.99,,2013-02-18 11:43:00,
2013-02-18 06:54:00,19.0,-99.9,-100.00,NNW,339,8.0,10.0,-999,0.00,,,-99.99,,2013-02-18 11:54:00,
2013-02-18 07:02:00,19.0,-99.9,-100.00,North,359,8.0,10.0,-999,0.00,,,-99.99,,2013-02-18 12:02:00,
2013-02-18 07:12:00,19.0,-99.9,-100.00,North,359,8.0,10.0,-999,0.00,,,-99.99,,2013-02-18 12:12:00,
2013-02-18 07:22:00,18.0,-99.9,-100.00,North,359,6.0,8.0,-999,0.00,,,-99.99,,2013-02-18 12:22:00,
2013-02-18 07:32:00,17.0,-99.9,-100.00,NNE,17,5.0,7.0,-999,0.00,,,-99.99,,2013-02-18 12:32:00,
2013-02-18 07:42:00,17.0,-99.9,-100.00,NNE,17,5.0,7.0,-999,0.00,,,-99.99,,2013-02-18 12:42:00,
2013-02-18 07:54:00,16.0,-99.9,-100.00,North,11,6.0,7.0,-999,0.00,,,-99.99,,2013-02-18 12:54:00,
2013-02-18 08:03:00,15.0,-99.9,-100.00,NNE,27,6.0,8.0,-999,0.00,,,-99.99,,2013-02-18 13:03:00,
2013-02-18 08:13:00,15.0,-99.9,-100.00,NNE,27,6.0,8.0,-999,0.00,,,-99.99,,2013-02-18 13:13:00,
2013-02-18 08:23:00,14.0,-99.9,-100.00,North,0,5.0,6.0,-999,0.00,,,-99.99,,2013-02-18 13:23:00,
2013-02-18 08:33:00,14.0,-99.9,-100.00,NNW,330,7.0,9.0,-999,0.00,,,-99.99,,2013-02-18 13:33:00,
2013-02-18 08:43:00,14.0,-99.9,-100.00,NNW,330,7.0,9.0,-999,0.00,,,-99.99,,2013-02-18 13:43:00,
2013-02-18 08:53:00,14.0,-99.9,-100.00,NNW,347,7.0,11.0,-999,0.00,,,-99.99,,2013-02-18 13:53:00,
2013-02-18 09:02:00,14.0,-99.9,-100.00,North,353,7.0,9.0,-999,0.00,,,-99.99,,2013-02-18 14:02:00,
2013-02-18 09:12:00,14.0,-99.9,-100.00,North,353,7.0,9.0,-999,0.00,,,-99.99,,2013-02-18 14:12:00,
2013-02-18 09:22:00,15.0,-99.9,-100.00,NNW,339,7.0,10.0,-999,0.00,,,-99.99,,2013-02-18 14:22:00,
2013-02-18 09:34:00,14.0,-99.9,-100.00,North,359,5.0,8.0,-999,0.00,,,-99.99,,2013-02-18 14:34:00,
2013-02-18 09:42:00,14.0,-99.9,-100.00,North,359,5.0,8.0,-999,0.00,,,-99.99,,2013-02-18 14:42:00,
2013-02-18 09:54:00,14.0,-99.9,-100.00,North,356,4.0,7.0,-999,0.00,,,-99.99,,2013-02-18 14:54:00,
2013-02-18 10:02:00,15.0,-99.9,-100.00,North,352,6.0,8.0,-999,0.00,,,-99.99,,2013-02-18 15:02:00,
2013-02-18 10:12:00,15.0,-99.9,-100.00,North,352,6.0,8.0,-999,0.00,,,-99.99,,2013-02-18 15:12:00,
2013-02-18 10:22:00,14.0,-99.9,-100.00,NNW,345,5.0,8.0,-999,0.00,,,-99.99,,2013-02-18 15:22:00,
2013-02-18 10:32:00,15.0,-99.9,-100.00,NNW,342,5.0,8.0,-999,0.00,,,-99.99,,2013-02-18 15:32:00,
2013-02-18 10:42:00,15.0,-99.9,-100.00,NNW,342,5.0,8.0,-999,0.00,,,-99.99,,2013-02-18 15:42:00,
2013-02-18 10:53:00,15.0,-99.9,-100.00,North,0,7.0,9.0,-999,0.00,,,-99.99,,2013-02-18 15:53:00,
2013-02-18 11:03:00,15.0,-99.9,-100.00,NNW,343,6.0,9.0,-999,0.00,,,-99.99,,2013-02-18 16:03:00,
2013-02-18 11:12:00,15.0,-99.9,-100.00,NNW,343,6.0,9.0,-999,0.00,,,-99.99,,2013-02-18 16:12:00,
2013-02-18 11:23:00,18.0,-99.9,-100.00,North,8,5.0,6.0,-999,0.00,,,-99.99,,2013-02-18 16:23:00,
2013-02-18 11:33:00,16.0,-99.9,-100.00,NNE,24,6.0,8.0,-999,0.00,,,-99.99,,2013-02-18 16:33:00,
2013-02-18 11:43:00,16.0,-99.9,-100.00,NNE,24,6.0,8.0,-999,0.00,,,-99.99,,2013-02-18 16:43:00,
2013-02-18 11:54:00,17.0,-99.9,-100.00,North,7,6.0,8.0,-999,0.00,,,-99.99,,2013-02-18 16:54:00,
2013-02-18 12:04:00,17.0,-99.9,-100.00,North,3,6.0,8.0,-999,0.00,,,-99.99,,2013-02-18 17:04:00,
2013-02-18 12:13:00,17.0,-99.9,-100.00,North,3,6.0,8.0,-999,0.00,,,-99.99,,2013-02-18 17:13:00,
2013-02-18 12:23:00,18.0,-99.9,-100.00,North,359,6.0,8.0,-999,0.00,,,-99.99,,2013-02-18 17:23:00,
2013-02-18 12:33:00,18.0,-99.9,-100.00,NNE,18,6.0,8.0,-999,0.00,,,-99.99,,2013-02-18 17:33:00,
2013-02-18 12:43:00,18.0,-99.9,-100.00,NNE,18,6.0,8.0,-999,0.00,,,-99.99,,2013-02-18 17:43:00,
2013-02-18 12:53:00,18.0,-99.9,-100.00,North,1,6.0,8.0,-999,0.00,,,-99.99,,2013-02-18 17:53:00,
2013-02-18 13:03:00,18.0,-99.9,-100.00,North,4,6.0,8.0,-999,0.00,,,-99.99,,2013-02-18 18:03:00,
2013-02-18 13:13:00,18.0,-99.9,-100.00,North,4,6.0,8.0,-999,0.00,,,-99.99,,2013-02-18 18:13:00,
2013-02-18 13:23:00,18.0,-99.9,-100.00,North,7,5.0,8.0,-999,0.00,,,-99.99,,2013-02-18 18:23:00,
2013-02-18 13:33:00,18.0,-99.9,-100.00,NNW,333,6.0,9.0,-999,0.00,,,-99.99,,2013-02-18 18:33:00,
2013-02-18 13:43:00,18.0,-99.9,-100.00,NNW,333,6.0,9.0,-999,0.00,,,-99.99,,2013-02-18 18:43:00,
2013-02-18 13:53:00,19.0,-99.9,-100.00,NNW,336,7.0,10.0,-999,0.00,,,-99.99,,2013-02-18 18:53:00,
2013-02-18 14:04:00,20.0,-99.9,-100.00,NNE,21,6.0,8.0,-999,0.00,,,-99.99,,2013-02-18 19:04:00,
2013-02-18 14:13:00,20.0,-99.9,-100.00,NNE,21,6.0,8.0,-999,0.00,,,-99.99,,2013-02-18 19:13:00,
2013-02-18 14:23:00,20.0,-99.9,-100.00,North,350,8.0,11.0,-999,0.00,,,-99.99,,2013-02-18 19:23:00,
2013-02-18 14:34:00,20.0,-99.9,-100.00,NNW,345,8.0,10.0,-999,0.00,,,-99.99,,2013-02-18 19:34:00,
2013-02-18 14:43:00,20.0,-99.9,-100.00,NNW,345,8.0,10.0,-999,0.00,,,-99.99,,2013-02-18 19:43:00,
2013-02-18 14:53:00,20.0,-99.9,-100.00,North,349,6.0,9.0,-999,0.00,,,-99.99,,2013-02-18 19:53:00,
2013-02-18 15:03:00,20.0,-99.9,-100.00,NNW,329,8.0,10.0,-999,0.00,,,-99.99,,2013-02-18 20:03:00,
2013-02-18 15:24:00,21.0,-99.9,-100.00,North,6,2.0,6.0,-999,0.00,,,-99.99,,2013-02-18 20:24:00,
2013-02-18 15:34:00,21.0,-99.9,-100.00,North,349,6.0,8.0,-999,0.00,,,-99.99,,2013-02-18 20:34:00,
2013-02-18 15:43:00,21.0,-99.9,-100.00,North,349,6.0,8.0,-999,0.00,,,-99.99,,2013-02-18 20:43:00,
2013-02-18 15:53:00,21.0,-99.9,-100.00,North,3,2.0,5.0,-999,0.00,,,-99.99,,2013-02-18 20:53:00,
2013-02-18 16:03:00,21.0,-99.9,-100.00,North,359,2.0,6.0,-999,0.00,,,-99.99,,2013-02-18 21:03:00,
2013-02-18 16:12:00,21.0,-99.9,-100.00,North,359,2.0,6.0,-999,0.00,,,-99.99,,2013-02-18 21:12:00,
2013-02-18 16:23:00,21.0,-99.9,-100.00,North,359,2.0,5.0,-999,0.00,,,-99.99,,2013-02-18 21:23:00,
2013-02-18 16:33:00,21.0,-99.9,-100.00,North,354,6.0,8.0,-999,0.00,,,-99.99,,2013-02-18 21:33:00,
2013-02-18 16:43:00,21.0,-99.9,-100.00,North,354,6.0,8.0,-999,0.00,,,-99.99,,2013-02-18 21:43:00,
2013-02-18 16:54:00,21.0,-99.9,-100.00,NNW,335,6.0,9.0,-999,0.00,,,-99.99,,2013-02-18 21:54:00,
2013-02-18 17:03:00,21.0,-99.9,-100.00,North,353,6.0,8.0,-999,0.00,,,-99.99,,2013-02-18 22:03:00,
2013-02-18 17:13:00,22.0,-99.9,-100.00,North,10,1.0,5.0,-999,0.00,,,-99.99,,2013-02-18 22:13:00,
2013-02-18 17:23:00,22.0,-99.9,-100.00,North,10,1.0,5.0,-999,0.00,,,-99.99,,2013-02-18 22:23:00,
2013-02-18 17:34:00,20.0,-99.9,-100.00,NNE,15,1.0,5.0,-999,0.00,,,-99.99,,2013-02-18 22:34:00,
2013-02-18 17:44:00,20.0,-99.9,-100.00,NNE,15,1.0,5.0,-999,0.00,,,-99.99,,2013-02-18 22:44:00,
2013-02-18 17:54:00,20.0,-99.9,-100.00,North,359,1.0,4.0,-999,0.00,,,-99.99,,2013-02-18 22:54:00,
2013-02-18 18:03:00,20.0,-99.9,-100.00,North,357,4.0,5.0,-999,0.00,,,-99.99,,2013-02-18 23:03:00,
2013-02-18 18:13:00,20.0,-99.9,-100.00,North,357,4.0,5.0,-999,0.00,,,-99.99,,2013-02-18 23:13:00,
2013-02-18 18:23:00,20.0,-99.9,-100.00,North,0,0.0,0.0,-999,0.00,,,-99.99,,2013-02-18 23:23:00,
2013-02-18 18:34:00,20.0,-99.9,-100.00,North,0,0.0,0.0,-999,0.00,,,-99.99,,2013-02-18 23:34:00,
2013-02-18 18:44:00,20.0,-99.9,-100.00,North,0,0.0,0.0,-999,0.00,,,-99.99,,2013-02-18 23:44:00,
2013-02-18 18:54:00,19.0,-99.9,-100.00,North,0,0.0,0.0,-999,0.00,,,-99.99,,2013-02-18 23:54:00,
2013-02-18 19:03:00,19.0,-99.9,-100.00,North,0,0.0,0.0,-999,0.00,,,-99.99,,2013-02-19 00:03:00,
2013-02-18 19:13:00,19.0,-99.9,-100.00,North,0,0.0,0.0,-999,0.00,,,-99.99,,2013-02-19 00:13:00,
2013-02-18 19:36:00,17.0,-99.9,-100.00,North,0,0.0,0.0,-999,0.00,,,-99.99,,2013-02-19 00:36:00,
2013-02-18 19:44:00,17.0,-99.9,-100.00,North,0,0.0,0.0,-999,0.00,,,-99.99,,2013-02-19 00:44:00,
2013-02-18 19:55:00,13.0,-99.9,-100.00,North,0,0.0,0.0,-999,0.00,,,-99.99,,2013-02-19 00:55:00,
2013-02-18 20:04:00,14.0,-99.9,-100.00,North,0,0.0,0.0,-999,0.00,,,-99.99,,2013-02-19 01:04:00,
2013-02-18 20:15:00,14.0,-99.9,-100.00,North,0,0.0,0.0,-999,0.00,,,-99.99,,2013-02-19 01:15:00,
2013-02-18 20:25:00,13.0,-99.9,-100.00,North,0,0.0,0.0,-999,0.00,,,-99.99,,2013-02-19 01:25:00,
2013-02-18 20:35:00,12.0,-99.9,-100.00,North,0,0.0,0.0,-999,0.00,,,-99.99,,2013-02-19 01:35:00,
2013-02-18 20:46:00,12.0,-99.9,-100.00,North,0,0.0,0.0,-999,0.00,,,-99.99,,2013-02-19 01:46:00,
2013-02-18 20:57:00,10.0,-99.9,-100.00,North,0,0.0,0.0,-999,0.00,,,-99.99,,2013-02-19 01:57:00,
2013-02-18 21:04:00,10.0,-99.9,-100.00,North,0,0.0,0.0,-999,0.00,,,-99.99,,2013-02-19 02:04:00,
2013-02-18 21:15:00,10.0,-99.9,-100.00,North,0,0.0,0.0,-999,0.00,,,-99.99,,2013-02-19 02:15:00,
2013-02-18 21:23:00,9.0,-99.9,-100.00,North,0,0.0,0.0,-999,0.00,,,-99.99,,2013-02-19 02:23:00,
2013-02-18 21:36:00,9.0,-99.9,-100.00,North,0,0.0,0.0,-999,0.00,,,-99.99,,2013-02-19 02:36:00,
2013-02-18 21:44:00,9.0,-99.9,-100.00,North,0,0.0,0.0,-999,0.00,,,-99.99,,2013-02-19 02:44:00,
2013-02-18 21:56:00,9.0,-99.9,-100.00,North,0,0.0,0.0,-999,0.00,,,-99.99,,2013-02-19 02:56:00,
2013-02-18 22:08:00,9.0,-99.9,-100.00,North,0,0.0,0.0,-999,0.00,,,-99.99,,2013-02-19 03:08:00,
2013-02-18 22:15:00,8.0,-99.9,-100.00,North,359,0.0,2.0,-999,0.00,,,-99.99,,2013-02-19 03:15:00,
2013-02-18 22:25:00,8.0,-99.9,-100.00,North,359,0.0,2.0,-999,0.00,,,-99.99,,2013-02-19 03:25:00,
2013-02-18 22:36:00,8.0,-99.9,-100.00,North,0,0.0,0.0,-999,0.00,,,-99.99,,2013-02-19 03:36:00,
2013-02-18 22:46:00,8.0,-99.9,-100.00,North,0,0.0,0.0,-999,0.00,,,-99.99,,2013-02-19 03:46:00,
2013-02-18 22:56:00,6.0,-99.9,-100.00,North,359,2.0,6.0,-999,0.00,,,-99.99,,2013-02-19 03:56:00,
2013-02-18 23:03:00,6.0,-99.9,-100.00,ENE,70,2.0,6.0,-999,0.00,,,-99.99,,2013-02-19 04:03:00,
2013-02-18 23:15:00,6.0,-99.9,-100.00,ENE,70,2.0,6.0,-999,0.00,,,-99.99,,2013-02-19 04:15:00,
2013-02-18 23:24:00,5.0,-99.9,-100.00,East,79,1.0,5.0,-999,0.00,,,-99.99,,2013-02-19 04:24:00,
2013-02-18 23:45:00,4.0,-99.9,-100.00,ENE,62,1.0,2.0,-999,0.00,,,-99.99,,2013-02-19 04:45:00,
2013-02-18 23:56:00,4.0,-99.9,-100.00,North,0,0.0,0.0,-999,0.00,,,-99.99,,2013-02-19 04:56:00,